GEC8346 EDDF-LTFM
Flight info
| Callsign | GEC8346 |
|---|---|
| Flight time | N/A |
| Altitude | 31000 |
| Route | CINDY5S CINDY Z74 HAREM DCT ASLEP DCT TAKUT DCT DINKU L603 BESNI/N0487F410 L605 MIQ/N0484F350 DCT ALUTU DCT BIBAG L605 ESEGA DCT VELOM/N0489F410 DCT GOTAR DCT BABIT DCT ESIRI DCT ETIDA T390 RILEX |
| Aircraft | B742/H-SDFHIRWXY/L |
Departure
| Time | N/A |
|---|---|
| Airport | Frankfurt Main Airport (EDDF) |
Arrival
| Time | 2026-02-18 13:41 |
|---|---|
| Airport | İstanbul Airport (LTFM) |
| Time | Latitude | Longitude | Altitude | Speed | Heading |
|---|---|---|---|---|---|
| 2026-02-18 12:27 | 45.57205 | 19.51662 | 32982 ft | 391 kts | 131° |
| 2026-02-18 12:27 | 45.53705 | 19.57319 | 32981 ft | 392 kts | 131° |
| 2026-02-18 12:28 | 45.50107 | 19.63118 | 32957 ft | 383 kts | 131° |
| 2026-02-18 12:28 | 45.48297 | 19.66033 | 32992 ft | 394 kts | 133° |
| 2026-02-18 12:28 | 45.46476 | 19.68916 | 32984 ft | 394 kts | 133° |
| 2026-02-18 12:29 | 45.42884 | 19.74628 | 33003 ft | 392 kts | 132° |
| 2026-02-18 12:29 | 45.37480 | 19.83290 | 32976 ft | 391 kts | 132° |
| 2026-02-18 12:30 | 45.33840 | 19.89105 | 32985 ft | 389 kts | 133° |
| 2026-02-18 12:30 | 45.30263 | 19.94806 | 32991 ft | 395 kts | 132° |
| 2026-02-18 12:31 | 45.26678 | 20.00511 | 32990 ft | 381 kts | 132° |
| 2026-02-18 12:31 | 45.24875 | 20.03376 | 32995 ft | 394 kts | 132° |
| 2026-02-18 12:31 | 45.23052 | 20.06266 | 32988 ft | 393 kts | 132° |
| 2026-02-18 12:32 | 45.19467 | 20.11947 | 33004 ft | 395 kts | 132° |
| 2026-02-18 12:32 | 45.15830 | 20.17699 | 33009 ft | 383 kts | 132° |
| 2026-02-18 12:33 | 45.10402 | 20.26259 | 33002 ft | 389 kts | 132° |
| 2026-02-18 12:34 | 45.06833 | 20.31871 | 33021 ft | 394 kts | 131° |
| 2026-02-18 12:34 | 45.03191 | 20.37590 | 32999 ft | 383 kts | 132° |
| 2026-02-18 12:35 | 44.99575 | 20.43256 | 33026 ft | 397 kts | 132° |
| 2026-02-18 12:35 | 44.95935 | 20.48948 | 33012 ft | 380 kts | 132° |
| 2026-02-18 12:35 | 44.94130 | 20.51763 | 33016 ft | 392 kts | 132° |
| 2026-02-18 12:36 | 44.92308 | 20.54609 | 33018 ft | 393 kts | 132° |
| 2026-02-18 12:36 | 44.88693 | 20.60237 | 33027 ft | 391 kts | 132° |
| 2026-02-18 12:37 | 44.85052 | 20.65899 | 32977 ft | 383 kts | 133° |
| 2026-02-18 12:37 | 44.79551 | 20.74328 | 32977 ft | 383 kts | 133° |
| 2026-02-18 12:38 | 44.77753 | 20.77113 | 33009 ft | 394 kts | 133° |
| 2026-02-18 12:38 | 44.75912 | 20.79959 | 32980 ft | 393 kts | 133° |
| 2026-02-18 12:38 | 44.72308 | 20.85522 | 33005 ft | 390 kts | 133° |
| 2026-02-18 12:39 | 44.68609 | 20.91217 | 32973 ft | 387 kts | 133° |
| 2026-02-18 12:39 | 44.65012 | 20.96747 | 32990 ft | 392 kts | 133° |
| 2026-02-18 12:40 | 44.61367 | 21.02335 | 32971 ft | 381 kts | 132° |
| 2026-02-18 12:40 | 44.59549 | 21.05119 | 32999 ft | 394 kts | 132° |
| 2026-02-18 12:40 | 44.57709 | 21.07935 | 32993 ft | 395 kts | 133° |
| 2026-02-18 12:41 | 44.52210 | 21.16329 | 32985 ft | 400 kts | 132° |
| 2026-02-18 12:41 | 44.50290 | 21.19254 | 32994 ft | 417 kts | 132° |
| 2026-02-18 12:42 | 44.48291 | 21.22298 | 32976 ft | 435 kts | 133° |
| 2026-02-18 12:42 | 44.46208 | 21.25463 | 32981 ft | 455 kts | 133° |
| 2026-02-18 12:42 | 44.44024 | 21.28779 | 32972 ft | 475 kts | 133° |
| 2026-02-18 12:42 | 44.41750 | 21.32227 | 32975 ft | 496 kts | 132° |
| 2026-02-18 12:43 | 44.39348 | 21.35868 | 32976 ft | 516 kts | 132° |
| 2026-02-18 12:43 | 44.36894 | 21.39584 | 32956 ft | 534 kts | 133° |
| 2026-02-18 12:43 | 44.34335 | 21.43455 | 32957 ft | 545 kts | 132° |
| 2026-02-18 12:44 | 44.29195 | 21.51242 | 32953 ft | 544 kts | 132° |
| 2026-02-18 12:44 | 44.24079 | 21.59024 | 32946 ft | 549 kts | 132° |
| 2026-02-18 12:45 | 44.18892 | 21.66884 | 32934 ft | 547 kts | 133° |
| 2026-02-18 12:45 | 44.11105 | 21.78480 | 32891 ft | 551 kts | 133° |
| 2026-02-18 12:46 | 44.05906 | 21.86268 | 32895 ft | 548 kts | 133° |
| 2026-02-18 12:46 | 44.00724 | 21.94042 | 32905 ft | 549 kts | 133° |
| 2026-02-18 12:47 | 43.95540 | 22.01802 | 32915 ft | 551 kts | 132° |
| 2026-02-18 12:47 | 43.90365 | 22.09529 | 32945 ft | 552 kts | 133° |
| 2026-02-18 12:48 | 43.85151 | 22.17287 | 32911 ft | 550 kts | 133° |
| 2026-02-18 12:48 | 43.79921 | 22.25049 | 32932 ft | 551 kts | 132° |
| 2026-02-18 12:49 | 43.72101 | 22.36618 | 32917 ft | 548 kts | 132° |
| 2026-02-18 12:50 | 43.67411 | 22.44757 | 32904 ft | 547 kts | 118° |
| 2026-02-18 12:50 | 43.63982 | 22.53819 | 32890 ft | 542 kts | 112° |
| 2026-02-18 12:51 | 43.60712 | 22.63171 | 32894 ft | 542 kts | 112° |
| 2026-02-18 12:51 | 43.57323 | 22.72488 | 32888 ft | 541 kts | 114° |
| 2026-02-18 12:52 | 43.53911 | 22.81617 | 32896 ft | 543 kts | 114° |
| 2026-02-18 12:52 | 43.50475 | 22.90854 | 32911 ft | 541 kts | 115° |
| 2026-02-18 12:53 | 43.47060 | 23.00048 | 32885 ft | 541 kts | 114° |
| 2026-02-18 12:53 | 43.41939 | 23.13801 | 32884 ft | 538 kts | 114° |
| 2026-02-18 12:54 | 43.38511 | 23.22970 | 32880 ft | 537 kts | 115° |
| 2026-02-18 12:54 | 43.35126 | 23.31988 | 32889 ft | 536 kts | 115° |
| 2026-02-18 12:55 | 43.31704 | 23.41080 | 32875 ft | 533 kts | 114° |
| 2026-02-18 12:55 | 43.28324 | 23.50026 | 32892 ft | 533 kts | 115° |
| 2026-02-18 12:56 | 43.25489 | 23.57515 | 32895 ft | 539 kts | 114° |
| 2026-02-18 12:56 | 43.22060 | 23.66536 | 32881 ft | 534 kts | 115° |
| 2026-02-18 12:57 | 43.16854 | 23.79958 | 32873 ft | 534 kts | 116° |
| 2026-02-18 12:58 | 43.13377 | 23.88984 | 32874 ft | 534 kts | 115° |
| 2026-02-18 12:58 | 43.09935 | 23.97937 | 32858 ft | 533 kts | 115° |
| 2026-02-18 12:59 | 43.06486 | 24.06897 | 32855 ft | 532 kts | 115° |
| 2026-02-18 12:59 | 43.03047 | 24.15794 | 32844 ft | 532 kts | 115° |
| 2026-02-18 13:00 | 42.99606 | 24.24669 | 32831 ft | 531 kts | 116° |
| 2026-02-18 13:00 | 42.96151 | 24.33549 | 32822 ft | 530 kts | 115° |
| 2026-02-18 13:01 | 42.90996 | 24.46751 | 32811 ft | 526 kts | 116° |
| 2026-02-18 13:01 | 42.87564 | 24.55509 | 32785 ft | 525 kts | 116° |
| 2026-02-18 13:02 | 42.84118 | 24.64277 | 32763 ft | 527 kts | 116° |
| 2026-02-18 13:02 | 42.80662 | 24.72926 | 32729 ft | 522 kts | 117° |
| 2026-02-18 13:03 | 42.77178 | 24.81615 | 32717 ft | 518 kts | 117° |
| 2026-02-18 13:03 | 42.73759 | 24.90197 | 32680 ft | 519 kts | 117° |
| 2026-02-18 13:04 | 42.70351 | 24.98762 | 32687 ft | 516 kts | 117° |
| 2026-02-18 13:04 | 42.66942 | 25.07309 | 32682 ft | 513 kts | 117° |
| 2026-02-18 13:05 | 42.61792 | 25.20172 | 32736 ft | 519 kts | 117° |
| 2026-02-18 13:06 | 42.58384 | 25.28648 | 32723 ft | 512 kts | 117° |
| 2026-02-18 13:06 | 42.54967 | 25.37125 | 32750 ft | 513 kts | 117° |
| 2026-02-18 13:07 | 42.51549 | 25.45577 | 32751 ft | 511 kts | 117° |
| 2026-02-18 13:07 | 42.48150 | 25.53963 | 32773 ft | 512 kts | 117° |
| 2026-02-18 13:08 | 42.44727 | 25.62380 | 32797 ft | 512 kts | 117° |
| 2026-02-18 13:08 | 42.41283 | 25.70752 | 32783 ft | 507 kts | 118° |
| 2026-02-18 13:09 | 42.36059 | 25.83341 | 32806 ft | 515 kts | 117° |
| 2026-02-18 13:09 | 42.32634 | 25.91657 | 32811 ft | 508 kts | 117° |
| 2026-02-18 13:10 | 42.29187 | 26.00025 | 32795 ft | 511 kts | 117° |
| 2026-02-18 13:10 | 42.25736 | 26.08381 | 32776 ft | 507 kts | 117° |
| 2026-02-18 13:11 | 42.22301 | 26.16672 | 32770 ft | 510 kts | 117° |
| 2026-02-18 13:11 | 42.19442 | 26.23556 | 32796 ft | 509 kts | 117° |
| 2026-02-18 13:12 | 42.15992 | 26.31838 | 32763 ft | 509 kts | 117° |
| 2026-02-18 13:12 | 42.12517 | 26.40159 | 32781 ft | 510 kts | 117° |
| 2026-02-18 13:13 | 42.07290 | 26.52627 | 32784 ft | 510 kts | 117° |
| 2026-02-18 13:13 | 42.05545 | 26.56777 | 32633 ft | 512 kts | 118° |
| 2026-02-18 13:14 | 42.03789 | 26.60948 | 32420 ft | 511 kts | 118° |
| 2026-02-18 13:14 | 42.02033 | 26.65048 | 32155 ft | 507 kts | 121° |
| 2026-02-18 13:14 | 42.00093 | 26.68904 | 31907 ft | 502 kts | 126° |
| 2026-02-18 13:14 | 41.97988 | 26.72621 | 31627 ft | 497 kts | 128° |
| 2026-02-18 13:15 | 41.95818 | 26.76283 | 31331 ft | 496 kts | 128° |
| 2026-02-18 13:15 | 41.93684 | 26.79845 | 30965 ft | 494 kts | 128° |
| 2026-02-18 13:15 | 41.91548 | 26.83417 | 30562 ft | 489 kts | 128° |
| 2026-02-18 13:15 | 41.89450 | 26.86943 | 30127 ft | 481 kts | 128° |
| 2026-02-18 13:16 | 41.87754 | 26.89800 | 29780 ft | 474 kts | 128° |
| 2026-02-18 13:16 | 41.85731 | 26.93217 | 29299 ft | 467 kts | 128° |
| 2026-02-18 13:16 | 41.83718 | 26.96619 | 28851 ft | 459 kts | 128° |
| 2026-02-18 13:16 | 41.81770 | 26.99912 | 28362 ft | 449 kts | 128° |
| 2026-02-18 13:17 | 41.78003 | 27.06273 | 27561 ft | 425 kts | 128° |
| 2026-02-18 13:17 | 41.76186 | 27.09337 | 27242 ft | 412 kts | 128° |
| 2026-02-18 13:17 | 41.74430 | 27.12295 | 26920 ft | 400 kts | 128° |
| 2026-02-18 13:18 | 41.72714 | 27.15181 | 26593 ft | 393 kts | 128° |
| 2026-02-18 13:18 | 41.71021 | 27.18025 | 26297 ft | 395 kts | 128° |
| 2026-02-18 13:18 | 41.69313 | 27.20889 | 25987 ft | 393 kts | 128° |
| 2026-02-18 13:18 | 41.67594 | 27.23768 | 25665 ft | 391 kts | 128° |
| 2026-02-18 13:19 | 41.65903 | 27.26596 | 25370 ft | 390 kts | 128° |
| 2026-02-18 13:19 | 41.64214 | 27.29420 | 25058 ft | 390 kts | 128° |
| 2026-02-18 13:19 | 41.62515 | 27.32260 | 24748 ft | 387 kts | 128° |
| 2026-02-18 13:19 | 41.60836 | 27.35065 | 24442 ft | 384 kts | 128° |
| 2026-02-18 13:20 | 41.59153 | 27.37872 | 24154 ft | 385 kts | 128° |
| 2026-02-18 13:20 | 41.57497 | 27.40627 | 23844 ft | 383 kts | 128° |
| 2026-02-18 13:20 | 41.55818 | 27.43417 | 23536 ft | 380 kts | 128° |
| 2026-02-18 13:20 | 41.54159 | 27.46174 | 23232 ft | 377 kts | 128° |
| 2026-02-18 13:21 | 41.50894 | 27.51596 | 22616 ft | 377 kts | 128° |
| 2026-02-18 13:21 | 41.49255 | 27.54310 | 22311 ft | 374 kts | 128° |
| 2026-02-18 13:21 | 41.47638 | 27.56988 | 22022 ft | 370 kts | 128° |
| 2026-02-18 13:22 | 41.46030 | 27.59649 | 21711 ft | 371 kts | 128° |
| 2026-02-18 13:22 | 41.44426 | 27.62301 | 21407 ft | 368 kts | 128° |
| 2026-02-18 13:22 | 41.42833 | 27.64933 | 21099 ft | 363 kts | 128° |
| 2026-02-18 13:22 | 41.41235 | 27.67542 | 20802 ft | 364 kts | 129° |
| 2026-02-18 13:23 | 41.39625 | 27.70156 | 20501 ft | 364 kts | 129° |
| 2026-02-18 13:23 | 41.38042 | 27.72742 | 20225 ft | 362 kts | 129° |
| 2026-02-18 13:23 | 41.36468 | 27.75326 | 19894 ft | 359 kts | 129° |
| 2026-02-18 13:23 | 41.34891 | 27.77919 | 19574 ft | 358 kts | 128° |
| 2026-02-18 13:24 | 41.33337 | 27.80475 | 19283 ft | 358 kts | 129° |
| 2026-02-18 13:24 | 41.31774 | 27.83042 | 18999 ft | 353 kts | 129° |
| 2026-02-18 13:24 | 41.30232 | 27.85572 | 18676 ft | 352 kts | 129° |
| 2026-02-18 13:24 | 41.28680 | 27.88116 | 18383 ft | 352 kts | 128° |
| 2026-02-18 13:25 | 41.25640 | 27.93096 | 17671 ft | 342 kts | 129° |
| 2026-02-18 13:25 | 41.24143 | 27.95544 | 17307 ft | 336 kts | 128° |
| 2026-02-18 13:25 | 41.22700 | 27.97902 | 16941 ft | 329 kts | 128° |
| 2026-02-18 13:26 | 41.21270 | 28.00238 | 16575 ft | 324 kts | 128° |
| 2026-02-18 13:26 | 41.19853 | 28.02552 | 16210 ft | 322 kts | 129° |
| 2026-02-18 13:26 | 41.18453 | 28.04837 | 15843 ft | 324 kts | 129° |
| 2026-02-18 13:26 | 41.17028 | 28.07156 | 15473 ft | 324 kts | 129° |
| 2026-02-18 13:27 | 41.15610 | 28.09461 | 15107 ft | 320 kts | 129° |
| 2026-02-18 13:27 | 41.14211 | 28.11735 | 14730 ft | 316 kts | 129° |
| 2026-02-18 13:27 | 41.12839 | 28.13967 | 14336 ft | 316 kts | 129° |
| 2026-02-18 13:27 | 41.11435 | 28.16250 | 13824 ft | 321 kts | 129° |
| 2026-02-18 13:28 | 41.10024 | 28.18536 | 13287 ft | 320 kts | 129° |
| 2026-02-18 13:28 | 41.08624 | 28.20805 | 12759 ft | 318 kts | 129° |
| 2026-02-18 13:28 | 41.07234 | 28.23062 | 12209 ft | 316 kts | 129° |
| 2026-02-18 13:28 | 41.05859 | 28.25282 | 11677 ft | 306 kts | 129° |
| 2026-02-18 13:29 | 41.03238 | 28.29525 | 10570 ft | 291 kts | 129° |
| 2026-02-18 13:29 | 41.01969 | 28.31573 | 10017 ft | 285 kts | 128° |
| 2026-02-18 13:29 | 41.00717 | 28.33592 | 9458 ft | 281 kts | 128° |
| 2026-02-18 13:30 | 40.99491 | 28.35575 | 8895 ft | 278 kts | 128° |
| 2026-02-18 13:30 | 40.98289 | 28.37543 | 8350 ft | 274 kts | 123° |
| 2026-02-18 13:30 | 40.97595 | 28.39830 | 7787 ft | 266 kts | 91° |
| 2026-02-18 13:30 | 40.97528 | 28.42222 | 7183 ft | 263 kts | 84° |
| 2026-02-18 13:31 | 40.97549 | 28.44658 | 6503 ft | 265 kts | 83° |
| 2026-02-18 13:31 | 40.97563 | 28.47096 | 5790 ft | 268 kts | 84° |
| 2026-02-18 13:31 | 40.97521 | 28.49536 | 5073 ft | 271 kts | 92° |
| 2026-02-18 13:31 | 40.97179 | 28.51974 | 4362 ft | 274 kts | 98° |
| 2026-02-18 13:32 | 40.96771 | 28.54420 | 3830 ft | 268 kts | 99° |
| 2026-02-18 13:32 | 40.96375 | 28.56802 | 3434 ft | 258 kts | 98° |
| 2026-02-18 13:32 | 40.96016 | 28.59066 | 3117 ft | 245 kts | 95° |
| 2026-02-18 13:32 | 40.95950 | 28.61254 | 3023 ft | 234 kts | 84° |
| 2026-02-18 13:33 | 40.96020 | 28.65559 | 2998 ft | 232 kts | 85° |
| 2026-02-18 13:33 | 40.96282 | 28.67644 | 2995 ft | 226 kts | 56° |
| 2026-02-18 13:33 | 40.97297 | 28.69090 | 2997 ft | 210 kts | 25° |
| 2026-02-18 13:34 | 40.98574 | 28.70070 | 2996 ft | 211 kts | 24° |
| 2026-02-18 13:34 | 40.99838 | 28.70984 | 2986 ft | 206 kts | 15° |
| 2026-02-18 13:34 | 41.01246 | 28.71253 | 2998 ft | 200 kts | 358° |
| 2026-02-18 13:34 | 41.02608 | 28.71302 | 2999 ft | 197 kts | 355° |
| 2026-02-18 13:35 | 41.03978 | 28.71276 | 2998 ft | 196 kts | 354° |
| 2026-02-18 13:35 | 41.05354 | 28.71212 | 2998 ft | 197 kts | 353° |
| 2026-02-18 13:35 | 41.06702 | 28.71149 | 3001 ft | 193 kts | 353° |
| 2026-02-18 13:35 | 41.07984 | 28.71104 | 2995 ft | 173 kts | 353° |
| 2026-02-18 13:36 | 41.09172 | 28.71074 | 3013 ft | 169 kts | 354° |
| 2026-02-18 13:36 | 41.10344 | 28.71050 | 3011 ft | 163 kts | 353° |
| 2026-02-18 13:36 | 41.11491 | 28.71026 | 3001 ft | 164 kts | 353° |
| 2026-02-18 13:36 | 41.12639 | 28.71002 | 3001 ft | 165 kts | 354° |
| 2026-02-18 13:37 | 41.14970 | 28.70960 | 2677 ft | 166 kts | 354° |
| 2026-02-18 13:37 | 41.16118 | 28.70941 | 2458 ft | 164 kts | 354° |
| 2026-02-18 13:37 | 41.17250 | 28.70920 | 2233 ft | 159 kts | 355° |
| 2026-02-18 13:38 | 41.18319 | 28.70906 | 2099 ft | 149 kts | 354° |
| 2026-02-18 13:38 | 41.19364 | 28.70882 | 1792 ft | 149 kts | 353° |
| 2026-02-18 13:38 | 41.20330 | 28.70862 | 1583 ft | 132 kts | 355° |
| 2026-02-18 13:38 | 41.21244 | 28.70847 | 1403 ft | 127 kts | 353° |
| 2026-02-18 13:39 | 41.22113 | 28.70827 | 1273 ft | 125 kts | 355° |
| 2026-02-18 13:39 | 41.22977 | 28.70809 | 1095 ft | 123 kts | 355° |
| 2026-02-18 13:39 | 41.23804 | 28.70791 | 913 ft | 115 kts | 356° |
| 2026-02-18 13:39 | 41.24623 | 28.70790 | 758 ft | 121 kts | 355° |
| 2026-02-18 13:40 | 41.25471 | 28.70764 | 601 ft | 119 kts | 356° |
| 2026-02-18 13:40 | 41.26282 | 28.70747 | 431 ft | 115 kts | 355° |
| 2026-02-18 13:40 | 41.27057 | 28.70731 | 342 ft | 105 kts | 355° |
| 2026-02-18 13:40 | 41.27635 | 28.70715 | 336 ft | 56 kts | 359° |
| 2026-02-18 13:41 | 41.28306 | 28.70773 | 336 ft | 22 kts | 22° |
| 2026-02-18 13:42 | 41.28416 | 28.70847 | 336 ft | 14 kts | 33° |
| 2026-02-18 13:42 | 41.28492 | 28.70951 | 336 ft | 16 kts | 71° |
| 2026-02-18 13:42 | 41.28502 | 28.71105 | 336 ft | 7 kts | 89° |
| 2026-02-18 13:42 | 41.28464 | 28.71169 | 336 ft | 14 kts | 163° |
| 2026-02-18 13:43 | 41.28365 | 28.71177 | 336 ft | 17 kts | 176° |
| 2026-02-18 13:43 | 41.28207 | 28.71185 | 336 ft | 29 kts | 177° |
| 2026-02-18 13:43 | 41.27982 | 28.71191 | 336 ft | 29 kts | 180° |
| 2026-02-18 13:43 | 41.27838 | 28.71191 | 336 ft | 16 kts | 180° |
| 2026-02-18 13:44 | 41.27717 | 28.71192 | 336 ft | 19 kts | 180° |
| 2026-02-18 13:44 | 41.27629 | 28.71241 | 336 ft | 13 kts | 100° |